Dallas, PA (18612)

7:44 AM EDT on May 24, 2016 (GMT -0400)
Captains Quarters Shavertown | | Change Station

Elev 1145 ft 41.33 °N, 75.94 °W | Updated 12 minutes ago

Clear
Clear
65.7 °F
Feels Like 65.7 °F
N
0.0
Wind Variable Wind from SE

Today
High -- | Low -- °F
--% Chance of Precip.
Yesterday
High -- | Low -- °F
Precip. -- in
Pressure 29.93 in
Visibility 9.0 miles
Clouds Clear
Dew Point 49 °F
Humidity 54%
Rainfall 0.00 in
Snow Depth Not available.
5:37 AM 8:24 PM
Waning Gibbous, 94% visible
METAR KAVP 241054Z 00000KT 9SM CLR 13/08 A2995 RMK AO2 SLP135 T01280083
Pressure 29.93 in
Visibility 9.0 miles
Clouds Clear
Dew Point 49 °F
Humidity 54%
Rainfall 0.00 in
Snow Depth Not available.
5:37 AM 8:24 PM
Waning Gibbous, 94% visible
METAR KAVP 241054Z 00000KT 9SM CLR 13/08 A2995 RMK AO2 SLP135 T01280083

10-Day Weather Forecast

Almanac

Astronomy

May. 24, 2016 Rise Set
Actual Time
Civil Twilight
Nautical Twilight
Astronomical Twilight
Moon
Length of Visible Light
Length of Day
Tomorrow will be .
, % of the Moon is Illuminated

Today's Extremes

State Highs State Lows

Community

WunderPhotos

Upload Photos

1,913,512 photos uploaded!

WunderBlog® & News

Nearby

Air Quality

  Air Quality AQ Index Pollutant
Not available.

Snow Depth

Station Depth Elevation

Earthquake Activity

City Distance Mag. Time & Date
Minimum magnitude displayed is 2.5.

Coastal Water Temperatures

Place Temperature

Stations

Nearby Weather Stations

Station Location Temp. Windchill Dew Point Humidity Wind Precip. Elev Updated Type
                   

Watches & Warnings

There are currently no watches in effect.